createdAt,value
2019-01-05T00:00:21.422Z,6.60
2019-01-05T00:01:21.414Z,6.60
2019-01-05T00:02:21.410Z,6.60
2019-01-05T00:03:21.405Z,6.59
2019-01-05T00:04:21.397Z,6.60
2019-01-05T00:05:21.386Z,6.63
2019-01-05T00:06:21.379Z,6.60
2019-01-05T00:07:21.373Z,6.63
2019-01-05T00:08:21.365Z,6.63
2019-01-05T00:09:21.358Z,6.60
2019-01-05T00:10:21.349Z,6.62
2019-01-05T00:11:21.341Z,6.66
2019-01-05T00:12:21.335Z,6.59
2019-01-05T00:13:21.327Z,6.62
2019-01-05T00:14:21.321Z,6.54
2019-01-05T00:15:21.312Z,6.67
2019-01-05T00:16:21.306Z,6.63
2019-01-05T00:17:21.299Z,6.56
2019-01-05T00:18:21.292Z,6.63
2019-01-05T00:19:21.285Z,6.64
2019-01-05T00:20:21.277Z,6.69
2019-01-05T00:21:21.268Z,6.69
2019-01-05T00:22:21.262Z,6.67
2019-01-05T00:23:21.254Z,6.64
2019-01-05T00:24:21.247Z,6.70
2019-01-05T00:25:21.240Z,6.69
2019-01-05T00:26:21.234Z,6.62
2019-01-05T00:27:21.226Z,6.67
2019-01-05T00:28:21.218Z,6.62
2019-01-05T00:29:21.211Z,6.75
2019-01-05T00:30:21.204Z,6.63
2019-01-05T00:31:21.196Z,6.69
2019-01-05T00:32:21.190Z,6.63
2019-01-05T00:33:21.182Z,6.66
2019-01-05T00:34:21.174Z,6.67
2019-01-05T00:35:21.168Z,6.69
2019-01-05T00:36:21.162Z,6.63
2019-01-05T00:37:21.153Z,6.74
2019-01-05T00:38:21.144Z,6.64
2019-01-05T00:39:21.138Z,6.60
2019-01-05T00:40:21.130Z,6.66
2019-01-05T00:41:21.123Z,6.66
2019-01-05T00:42:21.115Z,6.69
2019-01-05T00:43:21.109Z,6.64
2019-01-05T00:44:21.103Z,6.67
2019-01-05T00:45:21.093Z,6.67
2019-01-05T00:46:21.085Z,6.66
2019-01-05T00:47:21.079Z,6.64
2019-01-05T00:48:21.073Z,6.66
2019-01-05T00:49:21.064Z,6.62
2019-01-05T00:50:21.057Z,6.67
2019-01-05T00:51:21.049Z,6.66
2019-01-05T00:52:21.044Z,6.66
2019-01-05T00:53:21.034Z,6.66
2019-01-05T00:54:21.028Z,6.67
2019-01-05T00:55:21.021Z,6.66
2019-01-05T00:56:21.014Z,6.59
2019-01-05T00:57:21.005Z,6.63
2019-01-05T00:58:20.998Z,6.62
2019-01-05T00:59:20.992Z,6.74
2019-01-05T01:00:20.987Z,6.74
2019-01-05T01:01:20.978Z,6.69
2019-01-05T01:02:20.969Z,6.64
2019-01-05T01:03:20.963Z,6.59
2019-01-05T01:04:20.956Z,6.66
2019-01-05T01:05:20.948Z,6.66
2019-01-05T01:06:20.942Z,6.72
2019-01-05T01:07:20.935Z,6.67
2019-01-05T01:08:20.926Z,6.70
2019-01-05T01:09:20.920Z,6.66
2019-01-05T01:10:20.913Z,6.66
2019-01-05T01:11:20.908Z,6.67
2019-01-05T01:12:20.898Z,6.69
2019-01-05T01:13:20.890Z,6.62
2019-01-05T01:14:20.883Z,6.66
2019-01-05T01:15:20.877Z,6.63
2019-01-05T01:16:20.869Z,6.72
2019-01-05T01:17:20.863Z,6.64
2019-01-05T01:18:20.855Z,6.63
2019-01-05T01:19:20.848Z,6.72
2019-01-05T01:20:20.842Z,6.70
2019-01-05T01:21:20.835Z,6.67
2019-01-05T01:22:20.825Z,6.74
2019-01-05T01:23:20.819Z,6.67
2019-01-05T01:24:20.813Z,6.74
2019-01-05T01:25:20.806Z,6.74
2019-01-05T01:26:20.799Z,6.69
2019-01-05T01:27:20.790Z,6.69
2019-01-05T01:28:20.786Z,6.78
2019-01-05T01:29:20.776Z,6.69
2019-01-05T01:30:20.770Z,6.77
2019-01-05T01:31:20.762Z,6.72
2019-01-05T01:32:20.755Z,6.75
2019-01-05T01:33:20.749Z,6.75
2019-01-05T01:34:20.741Z,6.75
2019-01-05T01:35:20.732Z,6.72
2019-01-05T01:36:20.726Z,6.74
2019-01-05T01:37:20.719Z,6.78
2019-01-05T01:38:20.712Z,6.70
2019-01-05T01:39:20.704Z,6.75
2019-01-05T01:40:20.700Z,6.69
2019-01-05T01:41:20.691Z,6.78
2019-01-05T01:42:20.683Z,6.72
2019-01-05T01:43:20.676Z,6.77
2019-01-05T01:44:20.669Z,6.74
2019-01-05T01:45:20.664Z,6.77
2019-01-05T01:46:20.658Z,6.79
2019-01-05T01:47:20.647Z,6.79
2019-01-05T01:48:20.642Z,6.77
2019-01-05T01:49:20.633Z,6.74
2019-01-05T01:50:20.729Z,6.82
2019-01-05T01:51:20.620Z,6.75
2019-01-05T01:52:20.615Z,6.75
2019-01-05T01:53:20.604Z,6.78
2019-01-05T01:54:20.597Z,6.77
2019-01-05T01:55:20.594Z,6.79
2019-01-05T01:56:20.584Z,6.74
2019-01-05T01:57:20.576Z,6.79
2019-01-05T01:58:20.570Z,6.79
2019-01-05T01:59:20.562Z,6.77
2019-01-05T02:00:20.555Z,6.77
2019-01-05T02:01:20.548Z,6.77
2019-01-05T02:02:20.541Z,6.75
2019-01-05T02:03:20.535Z,6.82
2019-01-05T02:04:20.526Z,6.79
2019-01-05T02:05:20.519Z,6.78
2019-01-05T02:06:20.539Z,6.81
2019-01-05T02:07:20.504Z,6.78
2019-01-05T02:08:20.497Z,6.84
2019-01-05T02:09:20.491Z,6.77
2019-01-05T02:10:20.482Z,6.78
2019-01-05T02:11:20.480Z,6.78
2019-01-05T02:12:20.469Z,6.85
2019-01-05T02:13:20.464Z,6.78
2019-01-05T02:14:20.455Z,6.85
2019-01-05T02:15:20.449Z,6.79
2019-01-05T02:16:20.442Z,6.79
2019-01-05T02:17:20.435Z,6.78
2019-01-05T02:18:20.427Z,6.79
2019-01-05T02:19:20.421Z,6.84
2019-01-05T02:20:20.413Z,6.85
2019-01-05T02:21:20.406Z,6.93
2019-01-05T02:22:20.398Z,6.89
2019-01-05T02:23:20.392Z,6.88
2019-01-05T02:24:20.385Z,6.84
2019-01-05T02:25:20.376Z,6.75
2019-01-05T02:26:20.369Z,6.87
2019-01-05T02:27:20.363Z,6.89
2019-01-05T02:28:20.358Z,6.88
2019-01-05T02:29:20.348Z,6.96
2019-01-05T02:30:20.344Z,6.93
2019-01-05T02:31:20.337Z,6.95
2019-01-05T02:32:20.330Z,6.87
2019-01-05T02:33:20.339Z,6.95
2019-01-05T02:34:20.314Z,6.89
2019-01-05T02:35:20.306Z,6.97
2019-01-05T02:36:20.301Z,6.93
2019-01-05T02:37:20.291Z,6.89
2019-01-05T02:38:20.310Z,7.06
2019-01-05T02:39:20.279Z,7.06
2019-01-05T02:40:20.276Z,6.99
2019-01-05T02:41:20.267Z,6.99
2019-01-05T02:42:20.257Z,7.05
2019-01-05T02:43:20.250Z,7.06
2019-01-05T02:44:20.244Z,6.99
2019-01-05T02:45:20.235Z,7.05
2019-01-05T02:46:20.227Z,7.03
2019-01-05T02:47:20.222Z,7.07
2019-01-05T02:48:20.215Z,7.10
2019-01-05T02:49:20.208Z,7.06
2019-01-05T02:50:20.199Z,7.07
2019-01-05T02:51:20.195Z,7.13
2019-01-05T02:52:20.185Z,7.15
2019-01-05T02:53:20.177Z,7.17
2019-01-05T02:54:20.172Z,7.15
2019-01-05T02:55:20.164Z,7.11
2019-01-05T02:56:20.158Z,7.18
2019-01-05T02:57:20.151Z,7.18
2019-01-05T02:58:20.144Z,7.20
2019-01-05T02:59:20.136Z,7.18
2019-01-05T03:00:20.128Z,7.15
2019-01-05T03:01:20.121Z,7.20
2019-01-05T03:02:20.114Z,7.18
2019-01-05T03:03:20.109Z,7.15
2019-01-05T03:04:20.102Z,7.23
2019-01-05T03:05:20.092Z,7.24
2019-01-05T03:06:20.086Z,7.20
2019-01-05T03:07:20.079Z,7.24
2019-01-05T03:08:20.078Z,7.17
2019-01-05T03:09:20.071Z,7.28
2019-01-05T03:10:20.061Z,7.25
2019-01-05T03:11:20.051Z,7.21
2019-01-05T03:12:20.044Z,7.21
2019-01-05T03:13:20.035Z,7.25
2019-01-05T03:14:20.030Z,7.31
2019-01-05T03:15:20.029Z,7.33
2019-01-05T03:16:20.015Z,7.35
2019-01-05T03:17:20.009Z,7.45
2019-01-05T03:18:20.001Z,7.38
2019-01-05T03:19:19.995Z,7.42
2019-01-05T03:20:19.986Z,7.40
2019-01-05T03:21:19.979Z,7.42
2019-01-05T03:22:19.972Z,7.40
2019-01-05T03:23:19.966Z,7.48
2019-01-05T03:24:19.962Z,7.50
2019-01-05T03:25:19.953Z,7.50
2019-01-05T03:26:19.944Z,7.56
2019-01-05T03:27:19.937Z,7.47
2019-01-05T03:28:19.932Z,7.47
2019-01-05T03:29:19.926Z,7.56
2019-01-05T03:30:19.953Z,7.56
2019-01-05T03:31:19.912Z,7.56
2019-01-05T03:32:19.904Z,7.58
2019-01-05T03:33:19.897Z,7.56
2019-01-05T03:34:19.891Z,7.63
2019-01-05T03:35:19.885Z,7.57
2019-01-05T03:36:19.874Z,7.58
2019-01-05T03:37:19.868Z,7.67
2019-01-05T03:38:19.863Z,7.61
2019-01-05T03:39:19.854Z,7.66
2019-01-05T03:40:19.848Z,7.63
2019-01-05T03:41:19.843Z,7.61
2019-01-05T03:42:19.832Z,7.72
2019-01-05T03:43:19.826Z,7.67
2019-01-05T03:44:19.820Z,7.70
2019-01-05T03:45:19.811Z,7.72
2019-01-05T03:46:19.804Z,7.61
2019-01-05T03:47:19.798Z,7.80
2019-01-05T03:48:19.798Z,7.66
2019-01-05T03:49:19.783Z,7.73
2019-01-05T03:50:19.780Z,7.73
2019-01-05T03:51:19.769Z,7.75
2019-01-05T03:52:19.764Z,7.87
2019-01-05T03:53:19.756Z,7.73
2019-01-05T03:54:19.750Z,7.79
2019-01-05T03:55:19.743Z,7.72
2019-01-05T03:56:19.739Z,7.77
2019-01-05T03:57:19.728Z,7.70
2019-01-05T03:58:19.722Z,7.80
2019-01-05T03:59:19.716Z,7.79
2019-01-05T04:00:19.712Z,7.76
2019-01-05T04:01:19.702Z,7.79
2019-01-05T04:02:19.704Z,7.77
2019-01-05T04:03:19.687Z,7.70
2019-01-05T04:04:19.681Z,7.80
2019-01-05T04:05:19.672Z,7.80
2019-01-05T04:06:19.667Z,7.82
2019-01-05T04:07:19.662Z,7.85
2019-01-05T04:08:19.656Z,7.83
2019-01-05T04:09:19.648Z,7.85
2019-01-05T04:10:19.639Z,7.80
2019-01-05T04:11:19.636Z,7.83
2019-01-05T04:12:19.626Z,7.80
2019-01-05T04:13:19.619Z,7.90
2019-01-05T04:14:19.613Z,7.85
2019-01-05T04:15:19.605Z,7.80
2019-01-05T04:16:19.600Z,7.80
2019-01-05T04:17:19.592Z,7.82
2019-01-05T04:18:19.586Z,7.91
2019-01-05T04:19:19.585Z,7.91
2019-01-05T04:20:19.574Z,7.94
2019-01-05T04:21:19.567Z,7.90
2019-01-05T04:22:19.559Z,7.91
2019-01-05T04:23:19.553Z,7.91
2019-01-05T04:24:19.547Z,7.95
2019-01-05T04:25:19.538Z,7.94
2019-01-05T04:26:19.530Z,7.94
2019-01-05T04:27:19.524Z,7.94
2019-01-05T04:28:20.457Z,7.88
2019-01-05T04:29:19.511Z,8.03
2019-01-05T04:30:19.504Z,7.91
2019-01-05T04:31:19.497Z,7.95
2019-01-05T04:32:19.489Z,7.94
2019-01-05T04:33:19.483Z,7.93
2019-01-05T04:34:19.496Z,7.95
2019-01-05T04:35:19.470Z,7.94
2019-01-05T04:36:19.463Z,8.01
2019-01-05T04:37:19.455Z,7.95
2019-01-05T04:38:19.450Z,7.98
2019-01-05T04:39:19.445Z,8.00
2019-01-05T04:40:19.437Z,8.05
2019-01-05T04:41:19.428Z,8.01
2019-01-05T04:42:19.423Z,8.03
2019-01-05T04:43:19.416Z,8.00
2019-01-05T04:44:19.409Z,8.05
2019-01-05T04:45:19.402Z,8.01
2019-01-05T04:46:19.395Z,8.03
2019-01-05T04:47:19.389Z,8.00
2019-01-05T04:48:19.383Z,7.98
2019-01-05T04:49:19.375Z,8.03
2019-01-05T04:50:19.371Z,7.97
2019-01-05T04:51:19.364Z,7.97
2019-01-05T04:52:19.372Z,8.00
2019-01-05T04:53:19.348Z,8.03
2019-01-05T04:54:19.343Z,8.06
2019-01-05T04:55:19.337Z,8.03
2019-01-05T04:56:19.329Z,8.00
2019-01-05T04:57:19.321Z,8.00
2019-01-05T04:58:19.317Z,8.00
2019-01-05T04:59:19.317Z,8.00
2019-01-05T05:00:19.303Z,8.00
2019-01-05T05:01:19.295Z,8.09
2019-01-05T05:02:19.289Z,8.06
2019-01-05T05:03:19.284Z,8.06
2019-01-05T05:04:19.276Z,8.06
2019-01-05T05:05:19.268Z,8.06
2019-01-05T05:06:19.263Z,8.06
2019-01-05T05:07:19.256Z,8.06
2019-01-05T05:08:19.249Z,8.09
2019-01-05T05:09:19.241Z,8.06
2019-01-05T05:10:19.234Z,8.06
2019-01-05T05:11:19.228Z,8.00
2019-01-05T05:12:19.224Z,8.10
2019-01-05T05:13:19.214Z,8.06
2019-01-05T05:14:19.211Z,8.00
2019-01-05T05:15:19.203Z,8.06
2019-01-05T05:16:19.196Z,8.03
2019-01-05T05:17:19.189Z,8.05
2019-01-05T05:18:19.182Z,8.09
2019-01-05T05:19:19.175Z,8.06
2019-01-05T05:20:19.169Z,8.09
2019-01-05T05:21:19.161Z,8.06
2019-01-05T05:22:19.155Z,8.06
2019-01-05T05:23:19.149Z,8.03
2019-01-05T05:24:19.144Z,8.08
2019-01-05T05:25:19.135Z,8.06
2019-01-05T05:26:19.127Z,8.09
2019-01-05T05:27:19.120Z,8.03
2019-01-05T05:28:19.118Z,8.06
2019-01-05T05:29:19.111Z,8.05
2019-01-05T05:30:19.101Z,8.08
2019-01-05T05:31:19.101Z,8.05
2019-01-05T05:32:19.091Z,8.01
2019-01-05T05:33:19.081Z,8.09
2019-01-05T05:34:19.073Z,8.05
2019-01-05T05:35:19.067Z,8.00
2019-01-05T05:36:19.062Z,8.03
2019-01-05T05:37:19.053Z,8.06
2019-01-05T05:38:19.048Z,8.06
2019-01-05T05:39:19.039Z,8.01
2019-01-05T05:40:19.034Z,8.00
2019-01-05T05:41:19.028Z,8.05
2019-01-05T05:42:19.019Z,8.06
2019-01-05T05:43:19.014Z,8.06
2019-01-05T05:44:19.009Z,8.03
2019-01-05T05:45:19.000Z,8.05
2019-01-05T05:46:18.997Z,8.06
2019-01-05T05:47:18.986Z,8.06
2019-01-05T05:48:18.981Z,8.06
2019-01-05T05:49:18.972Z,8.10
2019-01-05T05:50:18.967Z,8.12
2019-01-05T05:51:18.961Z,8.08
2019-01-05T05:52:18.954Z,8.01
2019-01-05T05:53:18.946Z,8.05
2019-01-05T05:54:18.941Z,8.01
2019-01-05T05:55:18.933Z,8.00
2019-01-05T05:56:18.927Z,8.06
2019-01-05T05:57:18.920Z,8.00
2019-01-05T05:58:18.912Z,8.00
2019-01-05T05:59:18.905Z,8.00
2019-01-05T06:00:18.901Z,8.03
2019-01-05T06:01:18.893Z,8.05
2019-01-05T06:02:18.885Z,8.03
2019-01-05T06:03:18.879Z,8.01
2019-01-05T06:04:18.874Z,8.01
2019-01-05T06:05:18.865Z,8.05
2019-01-05T06:06:18.864Z,7.98
2019-01-05T06:07:18.853Z,8.03
2019-01-05T06:08:18.846Z,8.01
2019-01-05T06:09:18.840Z,8.01
2019-01-05T06:10:18.832Z,8.05
2019-01-05T06:11:18.828Z,7.97
2019-01-05T06:12:18.821Z,8.00
2019-01-05T06:13:18.812Z,7.95
2019-01-05T06:14:18.807Z,8.03
2019-01-05T06:15:18.800Z,8.00
2019-01-05T06:16:18.794Z,7.97
2019-01-05T06:17:18.785Z,8.01
2019-01-05T06:18:18.780Z,8.05
2019-01-05T06:19:18.774Z,8.06
2019-01-05T06:20:18.767Z,8.00
2019-01-05T06:21:18.761Z,8.00
2019-01-05T06:22:18.752Z,7.98
2019-01-05T06:23:18.747Z,8.00
2019-01-05T06:24:18.741Z,8.03
2019-01-05T06:25:18.733Z,8.00
2019-01-05T06:26:18.727Z,7.94
2019-01-05T06:27:18.721Z,8.01
2019-01-05T06:28:18.713Z,8.01
2019-01-05T06:29:18.707Z,8.01
2019-01-05T06:30:18.700Z,7.94
2019-01-05T06:31:18.694Z,7.98
2019-01-05T06:32:18.687Z,8.01
2019-01-05T06:33:18.680Z,7.97
2019-01-05T06:34:18.674Z,7.95
2019-01-05T06:35:18.666Z,8.00
2019-01-05T06:36:18.660Z,7.93
2019-01-05T06:37:18.653Z,7.94
2019-01-05T06:38:18.645Z,7.93
2019-01-05T06:39:18.638Z,7.91
2019-01-05T06:40:18.632Z,7.94
2019-01-05T06:41:18.624Z,7.94
2019-01-05T06:42:18.619Z,7.88
2019-01-05T06:43:18.612Z,7.93
2019-01-05T06:44:18.605Z,7.91
2019-01-05T06:45:18.599Z,7.97
2019-01-05T06:46:18.593Z,7.93
2019-01-05T06:47:18.585Z,7.91
2019-01-05T06:48:18.579Z,7.97
2019-01-05T06:49:18.571Z,7.98
2019-01-05T06:50:18.564Z,7.93
2019-01-05T06:51:18.559Z,7.90
2019-01-05T06:52:18.552Z,7.94
2019-01-05T06:53:18.544Z,7.97
2019-01-05T06:54:18.538Z,7.93
2019-01-05T06:55:18.531Z,7.91
2019-01-05T06:56:18.524Z,7.94
2019-01-05T06:57:18.519Z,7.91
2019-01-05T06:58:18.511Z,7.90
2019-01-05T06:59:18.504Z,8.00
2019-01-05T07:00:18.498Z,7.94
2019-01-05T07:01:18.492Z,7.94
2019-01-05T07:02:18.485Z,7.97
2019-01-05T07:03:18.479Z,7.97
2019-01-05T07:04:18.471Z,7.93
2019-01-05T07:05:18.465Z,7.95
2019-01-05T07:06:18.457Z,7.94
2019-01-05T07:07:18.451Z,7.97
2019-01-05T07:08:18.444Z,8.06
2019-01-05T07:09:18.438Z,8.01
2019-01-05T07:10:18.432Z,8.00
2019-01-05T07:11:18.427Z,7.97
2019-01-05T07:12:18.419Z,7.91
2019-01-05T07:13:18.410Z,7.93
2019-01-05T07:14:18.405Z,7.93
2019-01-05T07:15:18.399Z,7.98
2019-01-05T07:16:18.392Z,8.00
2019-01-05T07:17:18.384Z,8.01
2019-01-05T07:18:18.378Z,8.03
2019-01-05T07:19:18.371Z,7.93
2019-01-05T07:20:18.366Z,7.94
2019-01-05T07:21:18.359Z,7.94
2019-01-05T07:22:18.351Z,7.91
2019-01-05T07:23:18.345Z,7.98
2019-01-05T07:24:18.338Z,7.97
2019-01-05T07:25:18.331Z,7.94
2019-01-05T07:26:18.324Z,7.97
2019-01-05T07:27:18.319Z,7.98
2019-01-05T07:28:18.311Z,8.00
2019-01-05T07:29:18.306Z,8.00
2019-01-05T07:30:18.297Z,8.01
2019-01-05T07:31:18.292Z,8.01
2019-01-05T07:32:18.286Z,8.01
2019-01-05T07:33:18.278Z,7.95
2019-01-05T07:34:18.272Z,7.97
2019-01-05T07:35:18.265Z,7.98
2019-01-05T07:36:18.260Z,7.95
2019-01-05T07:37:18.252Z,7.97
2019-01-05T07:38:18.245Z,7.98
2019-01-05T07:39:18.238Z,8.01
2019-01-05T07:40:18.232Z,8.05
2019-01-05T07:41:18.223Z,7.94
2019-01-05T07:42:18.217Z,8.03
2019-01-05T07:43:18.210Z,8.00
2019-01-05T07:44:18.206Z,8.03
2019-01-05T07:45:18.198Z,8.00
2019-01-05T07:46:18.192Z,8.01
2019-01-05T07:47:18.185Z,8.03
2019-01-05T07:48:18.179Z,8.03
2019-01-05T07:49:18.171Z,8.00
2019-01-05T07:50:18.168Z,8.00
2019-01-05T07:51:18.159Z,8.05
2019-01-05T07:52:18.153Z,8.00
2019-01-05T07:53:18.144Z,8.03
2019-01-05T07:54:18.138Z,8.00
2019-01-05T07:55:18.133Z,8.00
2019-01-05T07:56:18.125Z,8.00
2019-01-05T07:57:18.117Z,8.10
2019-01-05T07:58:18.115Z,8.00
2019-01-05T07:59:18.108Z,7.98
2019-01-05T08:00:18.099Z,8.05
2019-01-05T08:01:18.094Z,8.09
2019-01-05T08:02:18.087Z,8.08
2019-01-05T08:03:18.080Z,8.03
2019-01-05T08:04:18.074Z,7.97
2019-01-05T08:05:18.065Z,8.06
2019-01-05T08:06:18.060Z,8.09
2019-01-05T08:07:18.054Z,8.00
2019-01-05T08:08:18.046Z,8.01
2019-01-05T08:09:18.039Z,8.00
2019-01-05T08:10:18.032Z,8.00
2019-01-05T08:11:18.027Z,8.00
2019-01-05T08:12:18.019Z,8.00
2019-01-05T08:13:18.013Z,7.98
2019-01-05T08:14:18.006Z,8.01
2019-01-05T08:15:18.001Z,8.06
2019-01-05T08:16:17.994Z,8.00
2019-01-05T08:17:17.987Z,8.03
2019-01-05T08:18:17.980Z,7.98
2019-01-05T08:19:17.973Z,7.98
2019-01-05T08:20:17.968Z,8.06
2019-01-05T08:21:17.960Z,8.06
2019-01-05T08:22:17.954Z,8.03
2019-01-05T08:23:17.949Z,8.03
2019-01-05T08:24:17.941Z,8.00
2019-01-05T08:25:17.933Z,8.03
2019-01-05T08:26:17.928Z,8.06
2019-01-05T08:27:17.921Z,8.06
2019-01-05T08:28:17.915Z,8.06
2019-01-05T08:29:17.907Z,8.00
2019-01-05T08:30:17.903Z,8.05
2019-01-05T08:31:17.899Z,8.06
2019-01-05T08:32:17.889Z,8.09
2019-01-05T08:33:17.882Z,8.03
2019-01-05T08:34:17.874Z,8.03
2019-01-05T08:35:17.868Z,8.08
2019-01-05T08:36:17.865Z,8.01
2019-01-05T08:37:17.855Z,8.01
2019-01-05T08:38:17.849Z,8.01
2019-01-05T08:39:17.845Z,8.05
2019-01-05T08:40:17.841Z,8.09
2019-01-05T08:41:17.830Z,8.12
2019-01-05T08:42:17.823Z,8.13
2019-01-05T08:43:17.818Z,8.05
2019-01-05T08:44:17.811Z,8.09
2019-01-05T08:45:17.804Z,8.13
2019-01-05T08:46:17.796Z,8.15
2019-01-05T08:47:17.791Z,8.10
2019-01-05T08:48:17.783Z,8.10
2019-01-05T08:49:17.777Z,8.13
2019-01-05T08:50:17.771Z,8.10
2019-01-05T08:51:17.765Z,8.15
2019-01-05T08:52:17.757Z,8.15
2019-01-05T08:53:17.752Z,8.16
2019-01-05T08:54:17.745Z,8.18
2019-01-05T08:55:17.739Z,8.19
2019-01-05T08:56:17.733Z,8.13
2019-01-05T08:57:17.724Z,8.15
2019-01-05T08:58:17.719Z,8.13
2019-01-05T08:59:17.713Z,8.15
2019-01-05T09:00:17.706Z,8.05
2019-01-05T09:01:17.699Z,8.15
2019-01-05T09:02:17.708Z,8.12
2019-01-05T09:03:17.687Z,8.13
2019-01-05T09:04:17.680Z,8.10
2019-01-05T09:05:17.675Z,8.20
2019-01-05T09:06:17.667Z,8.16
2019-01-05T09:07:17.660Z,8.12
2019-01-05T09:08:17.654Z,8.19
2019-01-05T09:09:17.647Z,8.19
2019-01-05T09:10:17.642Z,8.15
2019-01-05T09:11:17.634Z,8.16
2019-01-05T09:12:17.632Z,8.15
2019-01-05T09:13:17.621Z,8.15
2019-01-05T09:14:17.615Z,8.23
2019-01-05T09:15:17.610Z,8.23
2019-01-05T09:16:17.603Z,8.18
2019-01-05T09:17:17.601Z,8.16
2019-01-05T09:18:17.593Z,8.24
2019-01-05T09:19:17.583Z,8.23
2019-01-05T09:20:17.577Z,8.23
2019-01-05T09:21:17.570Z,8.20
2019-01-05T09:22:17.563Z,8.26
2019-01-05T09:23:17.558Z,8.20
2019-01-05T09:24:17.553Z,8.23
2019-01-05T09:25:17.545Z,8.19
2019-01-05T09:26:17.538Z,8.23
2019-01-05T09:27:20.574Z,8.20
2019-01-05T09:28:17.527Z,8.24
2019-01-05T09:29:17.519Z,8.23
2019-01-05T09:30:17.512Z,8.26
2019-01-05T09:31:17.511Z,8.28
2019-01-05T09:32:17.501Z,8.28
2019-01-05T09:33:17.496Z,8.19
2019-01-05T09:34:17.488Z,8.24
2019-01-05T09:35:17.483Z,8.23
2019-01-05T09:36:17.476Z,8.20
2019-01-05T09:37:17.469Z,8.26
2019-01-05T09:38:17.463Z,8.24
2019-01-05T09:39:17.457Z,8.20
2019-01-05T09:40:17.457Z,8.27
2019-01-05T09:41:17.445Z,8.23
2019-01-05T09:42:17.439Z,8.24
2019-01-05T09:43:17.433Z,8.30
2019-01-05T09:44:17.425Z,8.27
2019-01-05T09:45:17.417Z,8.26
2019-01-05T09:46:17.411Z,8.24
2019-01-05T09:47:17.405Z,8.16
2019-01-05T09:48:17.398Z,8.30
2019-01-05T09:49:17.392Z,8.26
2019-01-05T09:50:17.385Z,8.20
2019-01-05T09:51:17.381Z,8.23
2019-01-05T09:52:17.374Z,8.23
2019-01-05T09:53:17.366Z,8.18
2019-01-05T09:54:17.361Z,8.19
2019-01-05T09:55:17.355Z,8.23
2019-01-05T09:56:17.348Z,8.26
2019-01-05T09:57:17.342Z,8.24
2019-01-05T09:58:17.335Z,8.23
2019-01-05T09:59:17.328Z,8.28
2019-01-05T10:00:17.324Z,8.24
2019-01-05T10:01:17.316Z,8.24
2019-01-05T10:02:17.309Z,8.16
2019-01-05T10:03:17.304Z,8.23
2019-01-05T10:04:17.298Z,8.26
2019-01-05T10:05:17.291Z,8.18
2019-01-05T10:06:17.283Z,8.24
2019-01-05T10:07:17.278Z,8.23
2019-01-05T10:08:17.274Z,8.20
2019-01-05T10:09:17.267Z,8.28
2019-01-05T10:10:17.258Z,8.24
2019-01-05T10:11:17.252Z,8.20
2019-01-05T10:12:17.246Z,8.26
2019-01-05T10:13:17.240Z,8.15
2019-01-05T10:14:17.234Z,8.27
2019-01-05T10:15:17.233Z,8.23
2019-01-05T10:16:17.222Z,8.15
2019-01-05T10:17:17.214Z,8.34
2019-01-05T10:18:17.207Z,8.26
2019-01-05T10:19:17.203Z,8.16
2019-01-05T10:20:17.196Z,8.18
2019-01-05T10:21:17.189Z,8.24
2019-01-05T10:22:17.184Z,8.27
2019-01-05T10:23:17.177Z,8.23
2019-01-05T10:24:17.172Z,8.20
2019-01-05T10:25:17.164Z,8.23
2019-01-05T10:26:17.157Z,8.30
2019-01-05T10:27:17.150Z,8.24
2019-01-05T10:28:17.144Z,8.16
2019-01-05T10:29:17.137Z,8.34
2019-01-05T10:30:17.132Z,8.28
2019-01-05T10:31:17.125Z,8.16
2019-01-05T10:32:17.171Z,8.23
2019-01-05T10:33:17.112Z,8.28
2019-01-05T10:34:17.106Z,8.20
2019-01-05T10:35:17.103Z,8.23
2019-01-05T10:36:17.094Z,8.18
2019-01-05T10:37:17.086Z,8.28
2019-01-05T10:38:17.082Z,8.19
2019-01-05T10:39:17.074Z,8.34
2019-01-05T10:40:17.068Z,8.36
2019-01-05T10:41:17.060Z,8.31
2019-01-05T10:42:17.054Z,8.41
2019-01-05T10:43:17.049Z,8.26
2019-01-05T10:44:17.044Z,8.30
2019-01-05T10:45:17.035Z,8.31
2019-01-05T10:46:17.028Z,8.41
2019-01-05T10:47:17.024Z,8.27
2019-01-05T10:48:17.015Z,8.31
2019-01-05T10:49:17.008Z,8.34
2019-01-05T10:50:17.004Z,8.31
2019-01-05T10:51:16.999Z,8.31
2019-01-05T10:52:16.992Z,8.37
2019-01-05T10:53:16.983Z,8.41
2019-01-05T10:54:16.978Z,8.31
2019-01-05T10:55:16.972Z,8.30
2019-01-05T10:56:16.965Z,8.31
2019-01-05T10:57:16.959Z,8.28
2019-01-05T10:58:16.952Z,8.36
2019-01-05T10:59:16.948Z,8.28
2019-01-05T11:00:16.940Z,8.28
2019-01-05T11:01:16.936Z,8.24
2019-01-05T11:02:16.928Z,8.34
2019-01-05T11:03:16.923Z,8.34
2019-01-05T11:04:16.915Z,8.31
2019-01-05T11:05:16.908Z,8.28
2019-01-05T11:06:16.903Z,8.38
2019-01-05T11:07:16.900Z,8.33
2019-01-05T11:08:16.891Z,8.36
2019-01-05T11:09:16.884Z,8.42
2019-01-05T11:10:16.877Z,8.28
2019-01-05T11:11:16.871Z,8.42
2019-01-05T11:12:16.866Z,8.28
2019-01-05T11:13:16.861Z,8.36
2019-01-05T11:14:16.852Z,8.38
2019-01-05T11:15:16.846Z,8.36
2019-01-05T11:16:16.841Z,8.28
2019-01-05T11:17:16.833Z,8.30
2019-01-05T11:18:16.828Z,8.38
2019-01-05T11:19:16.822Z,8.42
2019-01-05T11:20:16.823Z,8.28
2019-01-05T11:21:16.810Z,8.33
2019-01-05T11:22:16.802Z,8.38
2019-01-05T11:23:16.796Z,8.36
2019-01-05T11:24:16.790Z,8.44
2019-01-05T11:25:16.784Z,8.41
2019-01-05T11:26:16.776Z,8.38
2019-01-05T11:27:16.771Z,8.45
2019-01-05T11:28:16.767Z,8.38
2019-01-05T11:29:16.759Z,8.34
2019-01-05T11:30:16.862Z,8.41
2019-01-05T11:31:16.753Z,8.36
2019-01-05T11:32:16.740Z,8.34
2019-01-05T11:33:16.735Z,8.38
2019-01-05T11:34:16.728Z,8.46
2019-01-05T11:35:16.720Z,8.44
2019-01-05T11:36:16.727Z,8.38
2019-01-05T11:37:16.714Z,8.41
2019-01-05T11:38:16.703Z,8.37
2019-01-05T11:39:16.697Z,8.28
2019-01-05T11:40:16.689Z,8.42
2019-01-05T11:41:16.683Z,8.42
2019-01-05T11:42:16.684Z,8.37
2019-01-05T11:43:16.682Z,8.37
2019-01-05T11:44:16.665Z,8.38
2019-01-05T11:45:16.659Z,8.41
2019-01-05T11:46:16.655Z,8.41
2019-01-05T11:47:16.660Z,8.48
2019-01-05T11:48:16.648Z,8.42
2019-01-05T11:49:16.634Z,8.41
2019-01-05T11:50:16.634Z,8.36
2019-01-05T11:51:16.623Z,8.41
2019-01-05T11:52:16.617Z,8.42
2019-01-05T11:53:16.609Z,8.45
2019-01-05T11:54:16.605Z,8.37
2019-01-05T11:55:16.599Z,8.48
2019-01-05T11:56:16.591Z,8.45
2019-01-05T11:57:16.585Z,8.44
2019-01-05T11:58:16.577Z,8.56
2019-01-05T11:59:16.583Z,8.46
2019-01-05T12:00:16.567Z,8.46
2019-01-05T12:01:16.576Z,8.44
2019-01-05T12:02:19.630Z,8.48
2019-01-05T12:03:16.556Z,8.44
2019-01-05T12:04:16.543Z,8.48
2019-01-05T12:05:16.544Z,8.56
2019-01-05T12:06:16.531Z,8.58
2019-01-05T12:07:16.534Z,8.52
2019-01-05T12:08:16.520Z,8.52
2019-01-05T12:09:16.516Z,8.52
2019-01-05T12:10:16.506Z,8.46
2019-01-05T12:11:16.507Z,8.51
2019-01-05T12:12:16.493Z,8.48
2019-01-05T12:13:16.486Z,8.52
2019-01-05T12:14:16.480Z,8.42
2019-01-05T12:15:16.474Z,8.52
2019-01-05T12:16:16.469Z,8.55
2019-01-05T12:17:16.464Z,8.58
2019-01-05T12:18:16.456Z,8.51
2019-01-05T12:19:16.450Z,8.56
2019-01-05T12:20:16.443Z,8.58
2019-01-05T12:21:16.436Z,8.52
2019-01-05T12:22:16.433Z,8.56
2019-01-05T12:23:16.424Z,8.53
2019-01-05T12:24:16.420Z,8.53
2019-01-05T12:25:16.418Z,8.60
2019-01-05T12:26:16.405Z,8.61
2019-01-05T12:27:16.400Z,8.63
2019-01-05T12:28:16.397Z,8.49
2019-01-05T12:29:16.389Z,8.60
2019-01-05T12:30:16.383Z,8.56
2019-01-05T12:31:16.378Z,8.60
2019-01-05T12:32:16.372Z,8.58
2019-01-05T12:33:16.365Z,8.60
2019-01-05T12:34:16.358Z,8.70
2019-01-05T12:35:16.352Z,8.56
2019-01-05T12:36:16.347Z,8.53
2019-01-05T12:37:16.340Z,8.51
2019-01-05T12:38:16.335Z,8.60
2019-01-05T12:39:16.328Z,8.49
2019-01-05T12:40:16.327Z,8.52
2019-01-05T12:41:16.316Z,8.52
2019-01-05T12:42:16.309Z,8.49
2019-01-05T12:43:16.304Z,8.53
2019-01-05T12:44:16.297Z,8.48
2019-01-05T12:45:16.290Z,8.44
2019-01-05T12:46:16.286Z,8.44
2019-01-05T12:47:16.282Z,8.44
2019-01-05T12:48:16.274Z,8.52
2019-01-05T12:49:16.267Z,8.48
2019-01-05T12:50:16.261Z,8.46
2019-01-05T12:51:16.255Z,8.46
2019-01-05T12:52:16.249Z,8.53
2019-01-05T12:53:16.244Z,8.46
2019-01-05T12:54:16.238Z,8.45
2019-01-05T12:55:16.231Z,8.56
2019-01-05T12:56:16.225Z,8.46
2019-01-05T12:57:16.220Z,8.46
2019-01-05T12:58:16.215Z,8.51
2019-01-05T12:59:16.206Z,8.45
2019-01-05T13:00:16.202Z,8.49
2019-01-05T13:01:16.195Z,8.45
2019-01-05T13:02:16.187Z,8.46
2019-01-05T13:03:16.184Z,8.45
2019-01-05T13:04:16.177Z,8.46
2019-01-05T13:05:16.172Z,8.38
2019-01-05T13:06:16.167Z,8.46
2019-01-05T13:07:16.158Z,8.44
2019-01-05T13:08:16.152Z,8.44
2019-01-05T13:09:16.145Z,8.41
2019-01-05T13:10:16.139Z,8.49
2019-01-05T13:11:16.133Z,8.45
2019-01-05T13:12:16.128Z,8.45
2019-01-05T13:13:16.121Z,8.46
2019-01-05T13:14:16.116Z,8.51
2019-01-05T13:15:16.108Z,8.44
2019-01-05T13:16:16.103Z,8.46
2019-01-05T13:17:16.098Z,8.42
2019-01-05T13:18:16.092Z,8.46